Kuala Dungun, Malaysia
Current Conditions -  °F | °C
As of 11:00 PM on Thursday 23 Oct 2014 (Local Time) from WMKN Reporting Station
Broken Clouds Broken Clouds  
Wind Chill: 77°   Ceiling: 25000
Heat Index: 78°   Visibility: 6mi
Dew Point: 73°   Wind: 3mph
Humidity: 89%   Direction: 220°SW
Pressure: 29.88"   Gusts: NA
Location:  4.78°N, 103.43°E
Report Text: WMKN 231500Z 22003KT 9999 SCT024 BKN250 25/23 Q1012
Loading
Personal Weather Stations






























Interactive Weather Map
Tropical Storm Tracking
New forecast layout! Learn more

10-Day Weather Forecast

Advertisements
Track Severe Weather on mobile